createdAt,value
2018-07-07T00:00:34.952Z,0
2018-07-07T00:01:36.989Z,0
2018-07-07T00:02:39.303Z,0
2018-07-07T00:03:41.617Z,0
2018-07-07T00:04:43.657Z,0
2018-07-07T00:05:45.679Z,0
2018-07-07T00:06:47.713Z,0
2018-07-07T00:07:49.754Z,0
2018-07-07T00:08:51.792Z,0
2018-07-07T00:09:53.836Z,0
2018-07-07T00:10:56.178Z,0
2018-07-07T00:11:58.213Z,0
2018-07-07T00:13:00.260Z,0
2018-07-07T00:14:02.568Z,0
2018-07-07T00:15:04.918Z,0
2018-07-07T00:16:06.948Z,0
2018-07-07T00:17:08.986Z,0
2018-07-07T00:18:11.017Z,0
2018-07-07T00:19:13.054Z,0
2018-07-07T00:20:15.095Z,0
2018-07-07T00:21:17.129Z,0
2018-07-07T00:22:19.156Z,0
2018-07-07T00:23:21.197Z,0
2018-07-07T00:24:23.229Z,0
2018-07-07T00:25:25.267Z,0
2018-07-07T00:26:27.304Z,0
2018-07-07T00:27:29.335Z,0
2018-07-07T00:28:31.420Z,0
2018-07-07T00:29:33.408Z,0
2018-07-07T00:30:35.729Z,0
2018-07-07T00:31:37.772Z,0
2018-07-07T00:32:39.798Z,0
2018-07-07T00:33:41.839Z,0
2018-07-07T00:34:43.867Z,0
2018-07-07T00:35:45.903Z,0
2018-07-07T00:36:48.252Z,0
2018-07-07T00:37:50.590Z,0
2018-07-07T00:38:52.630Z,0
2018-07-07T00:39:54.665Z,0
2018-07-07T00:40:56.682Z,0
2018-07-07T00:41:58.724Z,0
2018-07-07T00:43:00.751Z,0
2018-07-07T00:44:02.789Z,0
2018-07-07T00:45:05.203Z,0
2018-07-07T00:46:07.222Z,0
2018-07-07T00:47:09.267Z,0
2018-07-07T00:48:11.302Z,0
2018-07-07T00:49:13.336Z,0
2018-07-07T00:50:15.751Z,0
2018-07-07T00:51:17.791Z,0
2018-07-07T00:52:20.109Z,0
2018-07-07T00:53:22.415Z,0
2018-07-07T00:54:24.463Z,0
2018-07-07T00:55:26.777Z,0
2018-07-07T00:56:29.192Z,0
2018-07-07T00:57:31.227Z,0
2018-07-07T00:58:33.260Z,0
2018-07-07T00:59:35.304Z,0
2018-07-07T01:00:37.342Z,0
2018-07-07T01:01:39.369Z,0
2018-07-07T01:02:41.402Z,0
2018-07-07T01:03:43.437Z,0
2018-07-07T01:04:45.459Z,0
2018-07-07T01:05:47.498Z,0
2018-07-07T01:06:49.534Z,0
2018-07-07T01:07:51.569Z,0
2018-07-07T01:08:53.602Z,0
2018-07-07T01:09:55.634Z,0
2018-07-07T01:10:58.353Z,0
2018-07-07T01:12:00.383Z,0
2018-07-07T01:13:02.415Z,0
2018-07-07T01:14:04.463Z,0
2018-07-07T01:15:06.494Z,0
2018-07-07T01:16:08.812Z,0
2018-07-07T01:17:10.845Z,0
2018-07-07T01:18:12.878Z,0
2018-07-07T01:19:14.917Z,0
2018-07-07T01:20:17.255Z,0
2018-07-07T01:21:19.277Z,0
2018-07-07T01:22:21.314Z,0
2018-07-07T01:23:23.352Z,0
2018-07-07T01:24:25.385Z,0
2018-07-07T01:25:27.418Z,0
2018-07-07T01:26:29.448Z,0
2018-07-07T01:27:31.488Z,0
2018-07-07T01:28:33.526Z,0
2018-07-07T01:29:35.832Z,0
2018-07-07T01:30:37.870Z,0
2018-07-07T01:31:39.904Z,0
2018-07-07T01:32:41.933Z,0
2018-07-07T01:33:43.968Z,0
2018-07-07T01:34:46.000Z,0
2018-07-07T01:35:48.046Z,0
2018-07-07T01:36:50.071Z,0
2018-07-07T01:37:52.537Z,0
2018-07-07T01:38:54.570Z,0
2018-07-07T01:39:56.595Z,0
2018-07-07T01:40:58.630Z,0
2018-07-07T01:42:00.663Z,0
2018-07-07T01:43:02.701Z,0
2018-07-07T01:44:04.738Z,0
2018-07-07T01:45:06.770Z,0
2018-07-07T01:46:08.810Z,0
2018-07-07T01:47:10.838Z,0
2018-07-07T01:48:13.160Z,0
2018-07-07T01:49:15.197Z,0
2018-07-07T01:50:17.228Z,0
2018-07-07T01:51:19.262Z,0
2018-07-07T01:52:21.297Z,0
2018-07-07T01:53:23.326Z,0
2018-07-07T01:54:25.366Z,0
2018-07-07T01:55:27.389Z,0
2018-07-07T01:56:29.715Z,0
2018-07-07T01:57:31.750Z,0
2018-07-07T01:58:33.788Z,0
2018-07-07T01:59:36.098Z,0
2018-07-07T02:00:38.529Z,0
2018-07-07T02:01:40.557Z,0
2018-07-07T02:02:42.594Z,0
2018-07-07T02:03:44.622Z,0
2018-07-07T02:04:47.042Z,0
2018-07-07T02:05:49.079Z,0
2018-07-07T02:06:51.396Z,0
2018-07-07T02:07:53.443Z,0
2018-07-07T02:08:55.468Z,0
2018-07-07T02:09:57.493Z,0
2018-07-07T02:10:59.526Z,0
2018-07-07T02:12:01.561Z,0
2018-07-07T02:13:03.981Z,0
2018-07-07T02:14:06.305Z,0
2018-07-07T02:15:08.340Z,0
2018-07-07T02:16:10.370Z,0
2018-07-07T02:17:12.408Z,0
2018-07-07T02:18:14.823Z,0
2018-07-07T02:19:16.917Z,0
2018-07-07T02:20:18.897Z,0
2018-07-07T02:21:21.231Z,0
2018-07-07T02:22:23.258Z,0
2018-07-07T02:23:25.292Z,0
2018-07-07T02:24:27.711Z,0
2018-07-07T02:25:29.744Z,0
2018-07-07T02:26:31.779Z,0
2018-07-07T02:27:33.826Z,0
2018-07-07T02:28:36.139Z,0
2018-07-07T02:29:38.173Z,0
2018-07-07T02:30:40.874Z,0
2018-07-07T02:31:42.911Z,0
2018-07-07T02:32:44.950Z,0
2018-07-07T02:33:47.376Z,0
2018-07-07T02:34:49.704Z,0
2018-07-07T02:35:52.062Z,0
2018-07-07T02:36:54.089Z,0
2018-07-07T02:37:56.128Z,0
2018-07-07T02:38:58.158Z,0
2018-07-07T02:40:00.194Z,0
2018-07-07T02:41:03.292Z,0
2018-07-07T02:42:05.629Z,0
2018-07-07T02:43:07.662Z,0
2018-07-07T02:44:09.978Z,0
2018-07-07T02:45:12.018Z,0
2018-07-07T02:46:14.365Z,0
2018-07-07T02:47:16.679Z,0
2018-07-07T02:48:19.009Z,1
2018-07-07T02:49:21.050Z,1
2018-07-07T02:50:23.081Z,1
2018-07-07T02:51:25.485Z,1
2018-07-07T02:52:27.520Z,1
2018-07-07T02:53:29.556Z,1
2018-07-07T02:54:31.975Z,1
2018-07-07T02:55:34.005Z,1
2018-07-07T02:56:36.432Z,1
2018-07-07T02:57:38.459Z,1
2018-07-07T02:58:40.494Z,2
2018-07-07T02:59:42.529Z,2
2018-07-07T03:00:45.451Z,2
2018-07-07T03:01:47.490Z,2
2018-07-07T03:02:50.098Z,2
2018-07-07T03:03:52.138Z,2
2018-07-07T03:04:54.453Z,3
2018-07-07T03:05:56.484Z,3
2018-07-07T03:06:58.529Z,3
2018-07-07T03:08:00.568Z,3
2018-07-07T03:09:02.881Z,3
2018-07-07T03:10:05.295Z,3
2018-07-07T03:11:07.333Z,4
2018-07-07T03:12:09.755Z,4
2018-07-07T03:13:11.787Z,4
2018-07-07T03:14:13.827Z,4
2018-07-07T03:15:15.847Z,5
2018-07-07T03:16:18.833Z,5
2018-07-07T03:17:20.879Z,5
2018-07-07T03:18:23.301Z,5
2018-07-07T03:19:25.623Z,6
2018-07-07T03:20:27.663Z,6
2018-07-07T03:21:29.704Z,6
2018-07-07T03:22:32.046Z,6
2018-07-07T03:23:34.076Z,7
2018-07-07T03:24:36.128Z,7
2018-07-07T03:25:38.168Z,7
2018-07-07T03:26:40.503Z,7
2018-07-07T03:27:42.536Z,8
2018-07-07T03:28:44.567Z,8
2018-07-07T03:29:46.886Z,8
2018-07-07T03:30:50.254Z,8
2018-07-07T03:31:52.580Z,9
2018-07-07T03:32:54.624Z,9
2018-07-07T03:33:56.645Z,9
2018-07-07T03:34:59.063Z,9
2018-07-07T03:36:01.398Z,9
2018-07-07T03:37:03.433Z,10
2018-07-07T03:38:05.768Z,10
2018-07-07T03:39:07.807Z,10
2018-07-07T03:40:09.840Z,11
2018-07-07T03:41:11.878Z,10
2018-07-07T03:42:13.914Z,11
2018-07-07T03:43:16.343Z,11
2018-07-07T03:44:18.377Z,11
2018-07-07T03:45:20.407Z,12
2018-07-07T03:46:22.440Z,11
2018-07-07T03:47:24.472Z,12
2018-07-07T03:48:26.506Z,12
2018-07-07T03:49:28.537Z,12
2018-07-07T03:50:30.568Z,13
2018-07-07T03:51:32.596Z,13
2018-07-07T03:52:34.913Z,13
2018-07-07T03:53:37.233Z,13
2018-07-07T03:54:39.268Z,13
2018-07-07T03:55:41.299Z,13
2018-07-07T03:56:43.337Z,14
2018-07-07T03:57:45.367Z,14
2018-07-07T03:58:47.872Z,14
2018-07-07T03:59:49.875Z,15
2018-07-07T04:00:52.208Z,15
2018-07-07T04:01:54.248Z,15
2018-07-07T04:02:56.282Z,15
2018-07-07T04:03:58.316Z,15
2018-07-07T04:05:00.360Z,16
2018-07-07T04:06:02.392Z,18
2018-07-07T04:07:04.729Z,18
2018-07-07T04:08:07.145Z,17
2018-07-07T04:09:09.567Z,18
2018-07-07T04:10:11.604Z,18
2018-07-07T04:11:13.939Z,19
2018-07-07T04:12:15.971Z,19
2018-07-07T04:13:18.011Z,20
2018-07-07T04:14:20.337Z,20
2018-07-07T04:15:22.378Z,21
2018-07-07T04:16:24.415Z,22
2018-07-07T04:17:26.759Z,22
2018-07-07T04:18:28.792Z,22
2018-07-07T04:19:30.825Z,23
2018-07-07T04:20:33.241Z,23
2018-07-07T04:21:35.276Z,23
2018-07-07T04:22:37.317Z,23
2018-07-07T04:23:39.364Z,23
2018-07-07T04:24:41.391Z,23
2018-07-07T04:25:43.425Z,24
2018-07-07T04:26:46.032Z,24
2018-07-07T04:27:48.067Z,24
2018-07-07T04:28:50.109Z,25
2018-07-07T04:29:52.143Z,25
2018-07-07T04:30:54.176Z,25
2018-07-07T04:31:56.494Z,26
2018-07-07T04:32:58.820Z,26
2018-07-07T04:34:00.852Z,25
2018-07-07T04:35:02.884Z,26
2018-07-07T04:36:04.916Z,26
2018-07-07T04:37:06.950Z,26
2018-07-07T04:38:08.984Z,26
2018-07-07T04:39:11.019Z,25
2018-07-07T04:40:13.409Z,27
2018-07-07T04:41:15.440Z,25
2018-07-07T04:42:17.849Z,27
2018-07-07T04:43:20.273Z,27
2018-07-07T04:44:22.309Z,28
2018-07-07T04:45:24.345Z,29
2018-07-07T04:46:27.070Z,28
2018-07-07T04:47:29.486Z,28
2018-07-07T04:48:31.531Z,29
2018-07-07T04:49:33.562Z,29
2018-07-07T04:50:35.595Z,29
2018-07-07T04:51:37.627Z,29
2018-07-07T04:52:39.665Z,29
2018-07-07T04:53:42.362Z,29
2018-07-07T04:54:44.384Z,32
2018-07-07T04:55:46.724Z,31
2018-07-07T04:56:48.760Z,31
2018-07-07T04:57:50.788Z,31
2018-07-07T04:58:52.823Z,30
2018-07-07T04:59:54.860Z,30
2018-07-07T05:00:56.893Z,29
2018-07-07T05:01:58.923Z,30
2018-07-07T05:03:00.959Z,29
2018-07-07T05:04:03.388Z,28
2018-07-07T05:05:05.806Z,28
2018-07-07T05:06:07.847Z,28
2018-07-07T05:07:09.879Z,28
2018-07-07T05:08:11.919Z,28
2018-07-07T05:09:13.951Z,29
2018-07-07T05:10:15.986Z,30
2018-07-07T05:11:18.022Z,31
2018-07-07T05:12:20.061Z,31
2018-07-07T05:13:22.096Z,31
2018-07-07T05:14:24.135Z,31
2018-07-07T05:15:26.516Z,30
2018-07-07T05:16:28.787Z,30
2018-07-07T05:17:30.820Z,30
2018-07-07T05:18:32.864Z,29
2018-07-07T05:19:34.898Z,28
2018-07-07T05:20:37.234Z,26
2018-07-07T05:21:39.266Z,25
2018-07-07T05:22:41.298Z,24
2018-07-07T05:23:43.323Z,23
2018-07-07T05:24:46.035Z,23
2018-07-07T05:25:48.071Z,23
2018-07-07T05:26:50.544Z,24
2018-07-07T05:27:52.567Z,26
2018-07-07T05:28:54.607Z,27
2018-07-07T05:29:56.630Z,27
2018-07-07T05:30:58.665Z,27
2018-07-07T05:32:00.751Z,27
2018-07-07T05:33:03.128Z,27
2018-07-07T05:34:05.161Z,27
2018-07-07T05:35:07.198Z,28
2018-07-07T05:36:09.628Z,27
2018-07-07T05:37:11.681Z,27
2018-07-07T05:38:13.691Z,27
2018-07-07T05:39:15.735Z,26
2018-07-07T05:40:17.770Z,27
2018-07-07T05:41:20.084Z,27
2018-07-07T05:42:22.506Z,27
2018-07-07T05:43:24.542Z,28
2018-07-07T05:44:26.579Z,26
2018-07-07T05:45:28.607Z,30
2018-07-07T05:46:30.633Z,27
2018-07-07T05:47:32.674Z,28
2018-07-07T05:48:34.709Z,28
2018-07-07T05:49:37.032Z,30
2018-07-07T05:50:39.069Z,29
2018-07-07T05:51:41.102Z,30
2018-07-07T05:52:43.139Z,29
2018-07-07T05:53:45.178Z,30
2018-07-07T05:54:47.207Z,31
2018-07-07T05:55:49.260Z,30
2018-07-07T05:56:51.292Z,30
2018-07-07T05:57:53.337Z,29
2018-07-07T05:58:55.370Z,30
2018-07-07T05:59:57.408Z,30
2018-07-07T06:00:59.444Z,30
2018-07-07T06:02:01.768Z,30
2018-07-07T06:03:03.790Z,28
2018-07-07T06:04:05.839Z,32
2018-07-07T06:05:07.872Z,33
2018-07-07T06:06:09.909Z,33
2018-07-07T06:07:11.946Z,32
2018-07-07T06:08:13.974Z,29
2018-07-07T06:09:16.301Z,33
2018-07-07T06:10:18.323Z,34
2018-07-07T06:11:20.357Z,31
2018-07-07T06:12:22.791Z,31
2018-07-07T06:13:24.824Z,30
2018-07-07T06:14:28.194Z,29
2018-07-07T06:15:30.171Z,31
2018-07-07T06:16:32.206Z,31
2018-07-07T06:17:34.626Z,31
2018-07-07T06:18:36.658Z,31
2018-07-07T06:19:38.710Z,31
2018-07-07T06:20:40.741Z,33
2018-07-07T06:21:43.059Z,34
2018-07-07T06:22:45.099Z,33
2018-07-07T06:23:47.137Z,33
2018-07-07T06:24:49.180Z,34
2018-07-07T06:25:51.220Z,34
2018-07-07T06:26:53.664Z,32
2018-07-07T06:27:55.673Z,32
2018-07-07T06:28:57.714Z,33
2018-07-07T06:29:59.754Z,32
2018-07-07T06:31:01.785Z,31
2018-07-07T06:32:04.123Z,31
2018-07-07T06:33:06.156Z,31
2018-07-07T06:34:08.492Z,31
2018-07-07T06:35:10.911Z,30
2018-07-07T06:36:12.962Z,31
2018-07-07T06:37:16.052Z,31
2018-07-07T06:38:18.063Z,31
2018-07-07T06:39:20.486Z,31
2018-07-07T06:40:22.519Z,31
2018-07-07T06:41:24.552Z,32
2018-07-07T06:42:26.588Z,31
2018-07-07T06:43:28.630Z,31
2018-07-07T06:44:30.952Z,31
2018-07-07T06:45:32.988Z,32
2018-07-07T06:46:35.030Z,32
2018-07-07T06:47:37.056Z,32
2018-07-07T06:48:39.093Z,32
2018-07-07T06:49:41.134Z,32
2018-07-07T06:50:43.161Z,33
2018-07-07T06:51:45.502Z,32
2018-07-07T06:52:47.541Z,32
2018-07-07T06:53:49.608Z,32
2018-07-07T06:54:51.608Z,33
2018-07-07T06:55:53.649Z,32
2018-07-07T06:56:55.687Z,33
2018-07-07T06:57:57.723Z,33
2018-07-07T06:58:59.764Z,33
2018-07-07T07:00:02.869Z,33
2018-07-07T07:01:05.305Z,33
2018-07-07T07:02:07.360Z,33
2018-07-07T07:03:09.400Z,33
2018-07-07T07:04:11.431Z,33
2018-07-07T07:05:13.752Z,33
2018-07-07T07:06:15.799Z,33
2018-07-07T07:07:17.848Z,33
2018-07-07T07:08:19.891Z,33
2018-07-07T07:09:21.924Z,33
2018-07-07T07:10:23.973Z,33
2018-07-07T07:11:25.999Z,33
2018-07-07T07:12:28.662Z,34
2018-07-07T07:13:31.087Z,34
2018-07-07T07:14:33.133Z,34
2018-07-07T07:15:35.475Z,34
2018-07-07T07:16:37.521Z,34
2018-07-07T07:17:39.958Z,34
2018-07-07T07:18:42.310Z,34
2018-07-07T07:19:44.345Z,34
2018-07-07T07:20:46.677Z,34
2018-07-07T07:21:48.715Z,34
2018-07-07T07:22:50.759Z,35
2018-07-07T07:23:53.074Z,35
2018-07-07T07:24:55.503Z,35
2018-07-07T07:25:57.876Z,35
2018-07-07T07:27:00.628Z,35
2018-07-07T07:28:02.672Z,36
2018-07-07T07:29:04.711Z,36
2018-07-07T07:30:06.749Z,36
2018-07-07T07:31:08.783Z,36
2018-07-07T07:32:10.832Z,36
2018-07-07T07:33:12.890Z,36
2018-07-07T07:34:15.213Z,36
2018-07-07T07:35:17.249Z,36
2018-07-07T07:36:19.291Z,36
2018-07-07T07:37:21.327Z,36
2018-07-07T07:38:23.365Z,36
2018-07-07T07:39:25.801Z,36
2018-07-07T07:40:28.138Z,36
2018-07-07T07:41:30.176Z,37
2018-07-07T07:42:32.224Z,37
2018-07-07T07:43:34.952Z,37
2018-07-07T07:44:36.975Z,37
2018-07-07T07:45:39.021Z,37
2018-07-07T07:46:41.064Z,37
2018-07-07T07:47:43.100Z,37
2018-07-07T07:48:45.139Z,37
2018-07-07T07:49:47.185Z,38
2018-07-07T07:50:49.896Z,37
2018-07-07T07:51:51.924Z,37
2018-07-07T07:52:54.481Z,37
2018-07-07T07:53:56.539Z,38
2018-07-07T07:54:58.583Z,38
2018-07-07T07:56:00.924Z,38
2018-07-07T07:57:02.964Z,38
2018-07-07T07:58:05.004Z,38
2018-07-07T07:59:08.483Z,38
2018-07-07T08:00:10.525Z,38
2018-07-07T08:01:12.563Z,39
2018-07-07T08:02:14.994Z,39
2018-07-07T08:03:17.053Z,39
2018-07-07T08:04:19.069Z,39
2018-07-07T08:05:21.120Z,39
2018-07-07T08:06:23.157Z,39
2018-07-07T08:07:25.192Z,39
2018-07-07T08:08:27.240Z,39
2018-07-07T08:09:29.562Z,39
2018-07-07T08:10:31.892Z,40
2018-07-07T08:11:33.945Z,40
2018-07-07T08:12:35.979Z,40
2018-07-07T08:13:38.032Z,41
2018-07-07T08:14:40.070Z,41
2018-07-07T08:15:42.113Z,41
2018-07-07T08:16:44.156Z,41
2018-07-07T08:17:46.199Z,42
2018-07-07T08:18:48.251Z,42
2018-07-07T08:19:50.601Z,42
2018-07-07T08:20:52.654Z,42
2018-07-07T08:21:54.699Z,42
2018-07-07T08:22:57.724Z,43
2018-07-07T08:23:59.728Z,42
2018-07-07T08:25:01.756Z,43
2018-07-07T08:26:03.801Z,43
2018-07-07T08:27:06.127Z,43
2018-07-07T08:28:08.548Z,43
2018-07-07T08:29:10.595Z,43
2018-07-07T08:30:12.634Z,44
2018-07-07T08:31:14.676Z,44
2018-07-07T08:32:16.708Z,44
2018-07-07T08:33:19.020Z,54
2018-07-07T08:34:21.098Z,112
2018-07-07T08:35:23.104Z,114
2018-07-07T08:36:26.117Z,129
2018-07-07T08:37:28.103Z,124
2018-07-07T08:38:30.152Z,127
2018-07-07T08:39:32.472Z,122
2018-07-07T08:40:34.899Z,97
2018-07-07T08:41:36.945Z,78
2018-07-07T08:42:38.984Z,66
2018-07-07T08:43:41.022Z,108
2018-07-07T08:44:43.064Z,118
2018-07-07T08:45:45.399Z,202
2018-07-07T08:46:47.743Z,300
2018-07-07T08:47:49.779Z,321
2018-07-07T08:48:51.958Z,328
2018-07-07T08:49:54.004Z,336
2018-07-07T08:50:56.048Z,364
2018-07-07T08:51:58.092Z,404
2018-07-07T08:53:07.336Z,381
2018-07-07T08:54:12.362Z,395
2018-07-07T08:55:19.244Z,411
2018-07-07T08:56:22.898Z,421
2018-07-07T08:57:26.249Z,395
2018-07-07T08:58:28.302Z,363
2018-07-07T08:59:30.352Z,366
2018-07-07T09:00:32.410Z,389
2018-07-07T09:01:34.453Z,378
2018-07-07T09:02:36.497Z,357
2018-07-07T09:03:38.539Z,366
2018-07-07T09:04:40.581Z,386
2018-07-07T09:05:42.956Z,401
2018-07-07T09:06:44.999Z,417
2018-07-07T09:07:47.162Z,420
2018-07-07T09:08:49.091Z,397
2018-07-07T09:09:51.425Z,368
2018-07-07T09:10:53.474Z,413
2018-07-07T09:11:55.521Z,463
2018-07-07T09:12:57.567Z,440
2018-07-07T09:13:59.622Z,439
2018-07-07T09:15:01.664Z,440
2018-07-07T09:16:03.993Z,438
2018-07-07T09:17:06.043Z,430
2018-07-07T09:18:08.089Z,429
2018-07-07T09:19:10.426Z,443
2018-07-07T09:20:13.148Z,427
2018-07-07T09:21:15.690Z,393
2018-07-07T09:22:17.734Z,347
2018-07-07T09:23:19.773Z,330
2018-07-07T09:24:21.823Z,356
2018-07-07T09:25:24.435Z,332
2018-07-07T09:26:26.824Z,319
2018-07-07T09:27:30.583Z,296
2018-07-07T09:28:32.586Z,299
2018-07-07T09:29:35.543Z,321
2018-07-07T09:30:37.590Z,344
2018-07-07T09:31:39.934Z,370
2018-07-07T09:32:41.979Z,358
2018-07-07T09:33:44.017Z,376
2018-07-07T09:34:46.349Z,382
2018-07-07T09:35:48.395Z,361
2018-07-07T09:36:50.451Z,384
2018-07-07T09:37:53.908Z,412
2018-07-07T09:38:55.966Z,432
2018-07-07T09:39:58.010Z,436
2018-07-07T09:41:00.061Z,455
2018-07-07T09:42:02.102Z,473
2018-07-07T09:43:04.153Z,489
2018-07-07T09:44:06.236Z,500
2018-07-07T09:45:08.233Z,494
2018-07-07T09:46:10.286Z,498
2018-07-07T09:47:12.342Z,500
2018-07-07T09:48:14.768Z,462
2018-07-07T09:49:16.816Z,472
2018-07-07T09:50:18.857Z,481
2018-07-07T09:51:21.193Z,472
2018-07-07T09:52:23.241Z,493
2018-07-07T09:53:25.286Z,471
2018-07-07T09:54:27.722Z,446
2018-07-07T09:55:30.051Z,485
2018-07-07T09:56:32.096Z,447
2018-07-07T09:57:34.154Z,464
2018-07-07T09:58:36.201Z,448
2018-07-07T09:59:38.247Z,439
2018-07-07T10:00:40.590Z,466
2018-07-07T10:01:43.029Z,464
2018-07-07T10:02:45.466Z,486
2018-07-07T10:03:47.521Z,482
2018-07-07T10:04:49.569Z,515
2018-07-07T10:05:51.636Z,503
2018-07-07T10:06:53.985Z,489
2018-07-07T10:07:56.036Z,485
2018-07-07T10:08:58.085Z,457
2018-07-07T10:10:00.137Z,468
2018-07-07T10:11:02.474Z,470
2018-07-07T10:12:04.528Z,494
2018-07-07T10:13:06.961Z,502
2018-07-07T10:14:09.982Z,500
2018-07-07T10:15:12.032Z,505
2018-07-07T10:16:14.079Z,500
2018-07-07T10:17:16.126Z,465
2018-07-07T10:18:18.178Z,475
2018-07-07T10:19:20.919Z,448
2018-07-07T10:20:22.964Z,419
2018-07-07T10:21:25.300Z,470
2018-07-07T10:22:27.530Z,461
2018-07-07T10:23:29.589Z,461
2018-07-07T10:24:31.637Z,494
2018-07-07T10:25:34.071Z,502
2018-07-07T10:26:36.135Z,510
2018-07-07T10:27:38.184Z,527
2018-07-07T10:28:40.226Z,522
2018-07-07T10:29:42.284Z,547
2018-07-07T10:30:44.334Z,570
2018-07-07T10:31:46.382Z,528
2018-07-07T10:32:48.424Z,532
2018-07-07T10:33:50.763Z,510
2018-07-07T10:34:52.816Z,495
2018-07-07T10:35:54.862Z,514
2018-07-07T10:36:56.919Z,521
2018-07-07T10:37:59.304Z,518
2018-07-07T10:39:01.353Z,538
2018-07-07T10:40:03.697Z,543
2018-07-07T10:41:05.749Z,503
2018-07-07T10:42:07.805Z,461
2018-07-07T10:43:09.856Z,503
2018-07-07T10:44:11.908Z,558
2018-07-07T10:45:13.971Z,537
2018-07-07T10:46:16.024Z,477
2018-07-07T10:47:18.102Z,470
2018-07-07T10:48:20.117Z,451
2018-07-07T10:49:22.173Z,460
2018-07-07T10:50:24.230Z,496
2018-07-07T10:51:26.286Z,519
2018-07-07T10:52:28.918Z,506
2018-07-07T10:53:30.969Z,526
2018-07-07T10:54:33.032Z,504
2018-07-07T10:55:35.797Z,493
2018-07-07T10:56:37.801Z,516
2018-07-07T10:57:39.855Z,553
2018-07-07T10:58:42.266Z,533
2018-07-07T10:59:44.299Z,539
2018-07-07T11:00:46.351Z,495
2018-07-07T11:01:48.419Z,501
2018-07-07T11:02:50.471Z,497
2018-07-07T11:03:52.806Z,469
2018-07-07T11:04:54.851Z,528
2018-07-07T11:05:56.904Z,528
2018-07-07T11:06:58.953Z,497
2018-07-07T11:08:01.009Z,541
2018-07-07T11:09:03.066Z,540
2018-07-07T11:10:05.117Z,527
2018-07-07T11:11:07.154Z,584
2018-07-07T11:12:09.314Z,537
2018-07-07T11:13:11.272Z,497
2018-07-07T11:14:13.332Z,493
2018-07-07T11:15:15.667Z,533
2018-07-07T11:16:17.720Z,572
2018-07-07T11:17:19.779Z,472
2018-07-07T11:18:21.822Z,484
2018-07-07T11:19:23.877Z,601
2018-07-07T11:20:25.943Z,578
2018-07-07T11:21:27.996Z,545
2018-07-07T11:22:30.053Z,525
2018-07-07T11:23:32.101Z,523
2018-07-07T11:24:34.450Z,562
2018-07-07T11:25:36.502Z,584
2018-07-07T11:26:38.560Z,573
2018-07-07T11:27:40.607Z,547
2018-07-07T11:28:42.657Z,493
2018-07-07T11:29:44.749Z,527
2018-07-07T11:30:46.769Z,567
2018-07-07T11:31:48.821Z,549
2018-07-07T11:32:51.169Z,523
2018-07-07T11:33:53.220Z,498
2018-07-07T11:34:55.280Z,506
2018-07-07T11:35:57.324Z,527
2018-07-07T11:36:59.393Z,562
2018-07-07T11:38:01.721Z,520
2018-07-07T11:39:03.772Z,516
2018-07-07T11:40:05.820Z,549
2018-07-07T11:41:08.261Z,534
2018-07-07T11:42:10.363Z,540
2018-07-07T11:43:12.377Z,566
2018-07-07T11:44:14.423Z,559
2018-07-07T11:45:16.484Z,577
2018-07-07T11:46:18.532Z,580
2018-07-07T11:47:20.590Z,591
2018-07-07T11:48:22.639Z,558
2018-07-07T11:49:25.093Z,532
2018-07-07T11:50:27.167Z,547
2018-07-07T11:51:29.188Z,516
2018-07-07T11:52:31.235Z,485
2018-07-07T11:53:33.302Z,445
2018-07-07T11:54:35.644Z,460
2018-07-07T11:55:37.697Z,518
2018-07-07T11:56:39.755Z,518
2018-07-07T11:57:41.811Z,539
2018-07-07T11:58:43.856Z,557
2018-07-07T11:59:45.911Z,566
2018-07-07T12:00:47.961Z,550
2018-07-07T12:01:50.389Z,519
2018-07-07T12:02:52.391Z,475
2018-07-07T12:03:54.439Z,473
2018-07-07T12:04:57.001Z,489
2018-07-07T12:05:59.029Z,499
2018-07-07T12:07:01.467Z,501
2018-07-07T12:08:13.872Z,489
2018-07-07T12:09:05.856Z,495
2018-07-07T12:10:07.910Z,486
2018-07-07T12:11:11.367Z,514
2018-07-07T12:12:13.809Z,557
2018-07-07T12:13:16.289Z,598
2018-07-07T12:14:18.741Z,555
2018-07-07T12:15:21.246Z,492
2018-07-07T12:16:23.832Z,496
2018-07-07T12:17:26.315Z,470
2018-07-07T12:18:28.759Z,459
2018-07-07T12:19:31.275Z,477
2018-07-07T12:20:33.386Z,539
2018-07-07T12:21:39.694Z,529
2018-07-07T12:22:43.456Z,598
2018-07-07T12:23:51.866Z,561
2018-07-07T12:24:57.096Z,544
2018-07-07T12:26:00.667Z,586
2018-07-07T12:27:03.105Z,570
2018-07-07T12:28:06.115Z,526
2018-07-07T12:29:13.425Z,538
2018-07-07T12:30:15.918Z,551
2018-07-07T12:31:18.570Z,539
2018-07-07T12:32:21.003Z,494
2018-07-07T12:33:23.347Z,471
2018-07-07T12:34:27.661Z,421
2018-07-07T12:35:29.830Z,430
2018-07-07T12:36:31.890Z,451
2018-07-07T12:37:34.244Z,442
2018-07-07T12:38:36.591Z,465
2018-07-07T12:39:38.642Z,498
2018-07-07T12:40:40.706Z,505
2018-07-07T12:41:42.767Z,422
2018-07-07T12:42:44.831Z,424
2018-07-07T12:43:46.889Z,447
2018-07-07T12:44:49.513Z,471
2018-07-07T12:45:51.455Z,513
2018-07-07T12:46:53.491Z,496
2018-07-07T12:47:55.541Z,461
2018-07-07T12:48:57.615Z,438
2018-07-07T12:49:59.974Z,434
2018-07-07T12:51:02.025Z,417
2018-07-07T12:52:05.032Z,429
2018-07-07T12:53:07.011Z,436
2018-07-07T12:54:09.351Z,467
2018-07-07T12:55:11.406Z,501
2018-07-07T12:56:13.459Z,499
2018-07-07T12:57:15.803Z,477
2018-07-07T12:58:17.848Z,496
2018-07-07T12:59:20.185Z,493
2018-07-07T13:00:22.238Z,443
2018-07-07T13:01:24.957Z,423
2018-07-07T13:02:27.011Z,422
2018-07-07T13:03:29.460Z,414
2018-07-07T13:04:31.515Z,400
2018-07-07T13:05:33.574Z,412
2018-07-07T13:06:35.627Z,440
2018-07-07T13:07:37.975Z,437
2018-07-07T13:08:40.026Z,424
2018-07-07T13:09:42.077Z,426
2018-07-07T13:10:44.130Z,451
2018-07-07T13:11:46.187Z,482
2018-07-07T13:12:48.238Z,504
2018-07-07T13:13:50.298Z,484
2018-07-07T13:14:52.348Z,460
2018-07-07T13:15:54.408Z,465
2018-07-07T13:16:56.455Z,462
2018-07-07T13:17:58.511Z,462
2018-07-07T13:19:00.568Z,445
2018-07-07T13:20:03.307Z,447
2018-07-07T13:21:06.079Z,451
2018-07-07T13:22:08.421Z,444
2018-07-07T13:23:10.472Z,425
2018-07-07T13:24:12.841Z,413
2018-07-07T13:25:14.904Z,431
2018-07-07T13:26:17.276Z,402
2018-07-07T13:27:19.329Z,435
2018-07-07T13:28:21.384Z,442
2018-07-07T13:29:23.449Z,435
2018-07-07T13:30:25.497Z,420
2018-07-07T13:31:27.577Z,436
2018-07-07T13:32:29.639Z,431
2018-07-07T13:33:33.813Z,424
2018-07-07T13:34:36.174Z,455
2018-07-07T13:35:38.233Z,466
2018-07-07T13:36:40.303Z,480
2018-07-07T13:37:42.953Z,485
2018-07-07T13:38:45.025Z,450
2018-07-07T13:39:47.407Z,459
2018-07-07T13:40:49.457Z,401
2018-07-07T13:41:51.519Z,409
2018-07-07T13:42:53.589Z,442
2018-07-07T13:43:56.031Z,472
2018-07-07T13:44:58.091Z,458
2018-07-07T13:46:00.431Z,425
2018-07-07T13:47:02.725Z,401
2018-07-07T13:48:04.751Z,420
2018-07-07T13:49:06.763Z,377
2018-07-07T13:50:08.780Z,402
2018-07-07T13:51:10.798Z,428
2018-07-07T13:52:13.204Z,426
2018-07-07T13:53:15.598Z,419
2018-07-07T13:54:17.622Z,413
2018-07-07T13:55:19.647Z,396
2018-07-07T13:56:21.667Z,401
2018-07-07T13:57:23.680Z,234
2018-07-07T13:58:25.700Z,183
2018-07-07T13:59:27.730Z,291
2018-07-07T14:00:30.022Z,422
2018-07-07T14:01:32.044Z,368
2018-07-07T14:02:34.066Z,344
2018-07-07T14:03:36.076Z,307
2018-07-07T14:04:38.390Z,302
2018-07-07T14:05:40.404Z,321
2018-07-07T14:06:42.427Z,387
2018-07-07T14:07:44.444Z,389
2018-07-07T14:08:46.462Z,372
2018-07-07T14:09:48.477Z,387
2018-07-07T14:10:51.068Z,413
2018-07-07T14:11:53.091Z,402
2018-07-07T14:12:55.115Z,382
2018-07-07T14:13:57.128Z,393
2018-07-07T14:14:59.155Z,377
2018-07-07T14:16:01.178Z,362
2018-07-07T14:17:03.287Z,330
2018-07-07T14:18:05.211Z,338
2018-07-07T14:19:07.236Z,329
2018-07-07T14:20:09.832Z,345
2018-07-07T14:21:11.850Z,384
2018-07-07T14:22:13.865Z,392
2018-07-07T14:23:15.897Z,366
2018-07-07T14:24:18.302Z,372
2018-07-07T14:25:20.620Z,351
2018-07-07T14:26:22.645Z,346
2018-07-07T14:27:24.666Z,355
2018-07-07T14:28:26.680Z,374
2018-07-07T14:29:28.697Z,351
2018-07-07T14:30:30.713Z,353
2018-07-07T14:31:32.736Z,397
2018-07-07T14:32:34.748Z,393
2018-07-07T14:33:36.768Z,360
2018-07-07T14:34:39.175Z,357
2018-07-07T14:35:41.194Z,357
2018-07-07T14:36:43.210Z,388
2018-07-07T14:37:45.614Z,388
2018-07-07T14:38:47.627Z,358
2018-07-07T14:39:49.656Z,379
2018-07-07T14:40:51.682Z,390
2018-07-07T14:41:53.702Z,356